Time;durP1;ratioP1;P1;durP2;ratioP2;P2;SDS_P1;SDS_P2;PMS_P1;PMS_P2;Temp;Humidity;BMP_temperature;BMP_pressure;BME280_temperature;BME280_humidity;BME280_pressure;Samples;Min_cycle;Max_cycle;Signal;HPM_P1;HPM_P2
2022/12/16 00:02:05;;;;;;;;;38.33;28.00;;;;;-3.22;91.49;97722.81;4957832;28;103130;-75
2022/12/16 00:04:32;;;;;;;;;34.33;32.00;;;;;-3.05;91.42;97747.72;4962625;28;102052;-75
2022/12/16 00:06:59;;;;;;;;;49.00;32.67;;;;;-3.04;92.32;97747.59;4955713;28;102303;-76
2022/12/16 00:09:26;;;;;;;;;32.67;29.67;;;;;-3.02;90.58;97752.78;4953998;28;103986;-74
2022/12/16 00:11:53;;;;;;;;;50.00;35.33;;;;;-3.04;91.19;97752.06;4954414;28;102591;-76
2022/12/16 00:14:20;;;;;;;;;57.50;44.50;;;;;-3.05;92.54;97763.59;4966260;28;103780;-76
2022/12/16 00:16:47;;;;;;;;;48.67;36.67;;;;;-3.05;90.85;97753.84;4953510;28;102592;-75
2022/12/16 00:19:14;;;;;;;;;37.00;28.67;;;;;-3.02;91.84;97756.25;4952124;28;104081;-75
2022/12/16 00:21:41;;;;;;;;;53.25;43.75;;;;;-3.08;91.80;97755.94;4952529;28;102618;-75
2022/12/16 00:24:08;;;;;;;;;49.75;39.50;;;;;-3.04;91.06;97766.13;4951843;28;102370;-75
2022/12/16 00:26:35;;;;;;;;;49.00;40.75;;;;;-3.00;90.74;97771.97;4952072;28;102481;-76
2022/12/16 00:29:04;;;;;;;;;42.67;34.67;;;;;-2.95;90.25;97765.28;4950360;28;104082;-74
2022/12/16 00:31:31;;;;;;;;;31.67;22.00;;;;;-2.89;91.30;97754.19;4953043;28;102297;-75
2022/12/16 00:33:58;;;;;;;;;26.67;23.00;;;;;-2.90;91.05;97744.56;4952618;28;107615;-75
2022/12/16 00:36:25;;;;;;;;;31.33;28.33;;;;;-2.92;90.85;97743.84;4966998;28;102248;-74
2022/12/16 00:38:52;;;;;;;;;29.67;25.67;;;;;-2.97;90.27;97732.84;4957930;28;104265;-75
2022/12/16 00:41:19;;;;;;;;;59.75;47.75;;;;;-3.04;91.85;97734.38;4962472;28;102140;-75
2022/12/16 00:43:46;;;;;;;;;65.50;51.25;;;;;-3.05;91.57;97732.72;4965424;28;102183;-75
2022/12/16 00:46:13;;;;;;;;;45.33;35.00;;;;;-2.98;92.34;97739.13;4959527;28;102466;-74
2022/12/16 00:48:41;;;;;;;;;36.00;32.00;;;;;-2.95;91.45;97745.94;4961659;28;104089;-75
2022/12/16 00:51:07;;;;;;;;;37.33;32.33;;;;;-2.96;90.67;97737.16;4968247;28;102675;-75
2022/12/16 00:53:35;;;;;;;;;35.67;29.00;;;;;-2.96;91.07;97741.63;4947071;28;102213;-76
2022/12/16 00:56:05;;;;;;;;;57.00;39.33;;;;;-2.97;90.96;97746.06;4958842;28;102805;-76
2022/12/16 00:58:32;;;;;;;;;71.50;45.00;;;;;-3.01;90.69;97739.38;4957908;28;105169;-74
2022/12/16 01:00:59;;;;;;;;;56.33;35.00;;;;;-2.95;91.88;97733.56;4960046;28;102166;-74
2022/12/16 01:03:27;;;;;;;;;41.67;34.33;;;;;-2.98;91.58;97731.19;4968152;28;102604;-74
2022/12/16 01:05:54;;;;;;;;;44.33;29.00;;;;;-2.93;90.79;97730.78;4968047;28;102330;-74
2022/12/16 01:08:21;;;;;;;;;42.67;29.00;;;;;-2.92;90.72;97725.34;4958609;28;103988;-75
2022/12/16 01:10:53;;;;;;;;;40.67;30.00;;;;;-2.97;91.14;97716.19;4956726;28;102228;-75
2022/12/16 01:13:23;;;;;;;;;40.33;30.67;;;;;-2.94;91.32;97723.81;4967262;28;102336;-75
2022/12/16 01:15:51;;;;;;;;;37.00;32.00;;;;;-3.01;91.58;97715.59;4963337;28;102213;-75
2022/12/16 01:18:18;;;;;;;;;31.67;27.67;;;;;-3.01;91.39;97696.25;4963550;28;104297;-76
2022/12/16 01:20:45;;;;;;;;;34.00;24.33;;;;;-3.08;91.54;97690.69;4969720;28;102384;-75
2022/12/16 01:23:12;;;;;;;;;23.33;19.33;;;;;-3.05;90.71;97700.16;4947417;28;102425;-75
2022/12/16 01:25:39;;;;;;;;;25.33;21.00;;;;;-2.99;91.13;97700.44;4960466;28;102021;-76
2022/12/16 01:28:06;;;;;;;;;30.33;24.67;;;;;-3.01;91.14;97696.25;4962551;28;103955;-75
2022/12/16 01:30:34;;;;;;;;;16.67;10.00;;;;;-3.04;92.29;97686.78;4961253;28;105203;-76
2022/12/16 01:33:01;;;;;;;;;37.33;30.00;;;;;-3.07;92.57;97683.59;4957888;28;102014;-75
2022/12/16 01:35:28;;;;;;;;;20.67;17.00;;;;;-3.03;92.03;97669.97;4939335;28;102358;-74
2022/12/16 01:38:15;;;;;;;;;23.00;18.33;;;;;-2.98;92.02;97675.66;4957269;28;105756;-76
2022/12/16 01:40:42;;;;;;;;;25.00;20.67;;;;;-3.05;91.39;97679.00;4967533;28;102528;-76
2022/12/16 01:43:13;;;;;;;;;27.33;21.00;;;;;-3.02;90.85;97684.88;4955438;28;102599;-75
2022/12/16 01:45:40;;;;;;;;;27.67;17.67;;;;;-2.94;90.83;97682.34;4962132;28;102303;-75
2022/12/16 01:48:33;;;;;;;;;16.00;13.67;;;;;-2.92;90.21;97668.97;4959006;28;104139;-74
2022/12/16 01:51:06;;;;;;;;;24.00;20.00;;;;;-2.95;90.68;97653.38;4953127;28;103831;-77
2022/12/16 01:53:37;;;;;;;;;16.00;11.33;;;;;-2.94;92.17;97639.19;4956689;28;102117;-74
2022/12/16 01:56:05;;;;;;;;;18.33;17.00;;;;;-2.99;90.76;97636.97;4961217;28;102065;-75
2022/12/16 01:58:36;;;;;;;;;29.00;24.33;;;;;-3.09;91.16;97616.78;4953452;28;103797;-75
2022/12/16 02:01:04;;;;;;;;;23.00;19.33;;;;;-2.99;91.63;97634.34;4937856;28;102417;-75
2022/12/16 02:03:34;;;;;;;;;34.67;28.33;;;;;-3.04;91.04;97636.56;4959865;28;103022;-74
2022/12/16 02:06:14;;;;;;;;;42.33;32.33;;;;;-3.10;91.35;97642.41;4963875;28;102057;-75
2022/12/16 02:09:14;;;;;;;;;39.33;29.67;;;;;-3.05;91.02;97632.25;4962905;28;104011;-76
2022/12/16 02:12:32;;;;;;;;;30.00;25.33;;;;;-3.05;92.49;97615.53;4951097;28;102370;-76
2022/12/16 02:15:42;;;;;;;;;41.00;22.67;;;;;-3.12;91.87;97622.38;4913591;28;102058;-77
2022/12/16 02:18:42;;;;;;;;;31.00;23.33;;;;;-3.09;91.25;97617.63;4951994;28;102331;-75
2022/12/16 02:21:44;;;;;;;;;25.00;24.33;;;;;-3.14;93.24;97604.00;4943822;28;107673;-76
2022/12/16 02:25:16;;;;;;;;;41.33;26.67;;;;;-3.12;92.07;97595.94;4966796;28;102090;-75
2022/12/16 02:28:17;;;;;;;;;28.00;26.67;;;;;-3.14;92.20;97596.06;4900771;28;102266;-77
2022/12/16 02:30:56;;;;;;;;;34.33;29.33;;;;;-3.18;93.71;97599.97;4964330;28;102527;-76
2022/12/16 02:33:38;;;;;;;;;52.67;35.33;;;;;-3.18;93.65;97586.75;4953409;28;109583;-76
2022/12/16 02:36:29;;;;;;;;;40.33;35.33;;;;;-3.15;94.06;97591.75;4959079;28;103568;-76
2022/12/16 02:39:01;;;;;;;;;15.67;10.33;;;;;-3.14;92.52;97585.50;4918501;28;102279;-76
2022/12/16 02:41:42;;;;;;;;;40.67;29.00;;;;;-3.14;93.83;97582.84;4961073;28;102623;-76
2022/12/16 02:44:11;;;;;;;;;36.33;28.00;;;;;-3.37;92.62;97540.03;4954674;28;104006;-76
2022/12/16 02:46:50;;;;;;;;;32.67;27.67;;;;;-3.14;93.47;97572.28;4959469;28;102410;-76
2022/12/16 02:49:20;;;;;;;;;28.00;22.00;;;;;-3.13;93.82;97575.75;4956165;28;102227;-75
2022/12/16 02:51:48;;;;;;;;;38.00;28.33;;;;;-3.25;93.79;97575.09;4965016;28;102178;-76
2022/12/16 02:54:16;;;;;;;;;46.00;29.33;;;;;-3.17;94.32;97565.47;4951087;28;105152;-76
2022/12/16 02:56:52;;;;;;;;;40.33;33.33;;;;;-3.23;93.89;97570.47;4953996;28;102723;-76
2022/12/16 02:59:35;;;;;;;;;38.67;33.33;;;;;-3.36;94.56;97554.06;4957599;28;102557;-76
2022/12/16 03:02:16;;;;;;;;;48.00;36.33;;;;;-3.28;94.48;97562.13;4954698;28;101904;-77
2022/12/16 03:04:53;;;;;;;;;48.67;37.67;;;;;-3.29;94.88;97566.56;4957035;28;104154;-75
2022/12/16 03:07:25;;;;;;;;;30.33;27.67;;;;;-3.25;93.64;97573.28;4967991;28;102187;-75
2022/12/16 03:09:54;;;;;;;;;38.00;27.33;;;;;-3.31;94.43;97555.34;4966430;28;102042;-77
2022/12/16 03:12:22;;;;;;;;;38.00;29.00;;;;;-3.23;94.92;97563.38;4950434;28;102324;-76
2022/12/16 03:14:52;;;;;;;;;42.67;28.67;;;;;-3.24;93.49;97563.50;4972178;28;108578;-76
2022/12/16 03:17:23;;;;;;;;;34.00;28.33;;;;;-3.20;94.48;97564.94;4966374;28;102173;-76
2022/12/16 03:20:16;;;;;;;;;33.67;25.33;;;;;-3.18;94.00;97557.69;4965557;28;102430;-76
2022/12/16 03:22:47;;;;;;;;;31.00;27.33;;;;;-3.20;94.05;97535.84;4963665;28;102156;-77
2022/12/16 03:25:15;;;;;;;;;38.33;29.33;;;;;-3.19;93.25;97538.34;4968968;28;104079;-76
2022/12/16 03:27:59;;;;;;;;;20.00;17.00;;;;;-3.18;93.70;97541.81;4970384;28;102842;-76
2022/12/16 03:30:33;;;;;;;;;25.00;21.67;;;;;-3.18;93.76;97531.25;4963177;28;102334;-75
2022/12/16 03:33:08;;;;;;;;;33.33;23.33;;;;;-3.19;93.27;97521.63;4974252;28;102097;-76
2022/12/16 03:35:41;;;;;;;;;27.33;20.33;;;;;-3.28;93.72;97493.41;4955586;28;103685;-76
2022/12/16 03:38:11;;;;;;;;;28.67;23.00;;;;;-3.21;93.77;97507.75;4958822;28;102494;-75
2022/12/16 03:40:41;;;;;;;;;28.33;25.00;;;;;-3.26;93.35;97505.53;4964847;28;102078;-75
2022/12/16 03:43:13;;;;;;;;;32.00;25.33;;;;;-3.30;93.23;97495.38;4957989;28;102427;-76
2022/12/16 03:45:44;;;;;;;;;29.00;24.33;;;;;-3.31;94.55;97483.97;4958287;28;104029;-76
2022/12/16 03:48:12;;;;;;;;;42.67;33.33;;;;;-3.36;94.50;97491.50;4942957;28;102323;-76
2022/12/16 03:50:39;;;;;;;;;32.67;27.67;;;;;-3.33;93.50;97500.97;4959916;28;102340;-76
2022/12/16 03:53:07;;;;;;;;;38.67;29.00;;;;;-3.38;93.40;97487.34;4960327;28;102278;-76
2022/12/16 03:55:34;;;;;;;;;29.00;26.67;;;;;-3.31;94.13;97493.72;4955038;28;104171;-75
2022/12/16 03:58:01;;;;;;;;;38.00;24.33;;;;;-3.32;93.94;97484.94;4962882;28;102324;-75
2022/12/16 04:00:28;;;;;;;;;35.67;30.00;;;;;-3.32;93.50;97481.47;4951316;28;102329;-75
2022/12/16 04:02:55;;;;;;;;;39.00;25.67;;;;;-3.33;93.25;97479.81;4961729;28;102086;-75
2022/12/16 04:05:23;;;;;;;;;39.33;23.00;;;;;-3.40;93.13;97462.84;4974583;28;104345;-75
2022/12/16 04:07:50;;;;;;;;;32.00;25.00;;;;;-3.32;92.92;97484.94;4961012;28;102215;-75
2022/12/16 04:24:17;;;;;;;;;23.33;20.67;;;;;-3.28;94.19;97477.56;4959857;28;102409;-76
2022/12/16 04:24:20;;;;;;;;;25.67;19.00;;;;;-3.21;92.54;97468.09;4957685;28;102842;-75
2022/12/16 04:32:25;;;;;;;;;16.67;14.33;;;;;-3.12;93.66;97471.69;4959623;28;102328;-75
2022/12/16 04:34:52;;;;;;;;;16.00;13.00;;;;;-3.11;93.27;97476.84;4958725;28;102439;-75
